createdAt,value
2024-03-12T00:00:09.443Z,78
2024-03-12T00:00:36.152Z,78
2024-03-12T00:00:55.898Z,78
2024-03-12T00:01:27.332Z,78
2024-03-12T00:01:58.917Z,78
2024-03-12T00:02:30.867Z,78
2024-03-12T00:03:02.838Z,78
2024-03-12T00:03:35.220Z,78
2024-03-12T00:04:07.153Z,78
2024-03-12T00:04:37.216Z,78
2024-03-12T00:04:54.804Z,78
2024-03-12T00:05:28.558Z,78
2024-03-12T00:05:59.516Z,78
2024-03-12T00:06:31.820Z,78
2024-03-12T00:07:02.920Z,78
2024-03-12T00:07:34.683Z,78
2024-03-12T00:08:06.876Z,78
2024-03-12T00:08:36.292Z,78
2024-03-12T00:08:55.592Z,78
2024-03-12T00:09:27.547Z,78
2024-03-12T00:10:00.093Z,78
2024-03-12T00:10:31.965Z,78
2024-03-12T00:11:03.217Z,78
2024-03-12T00:11:34.828Z,78
2024-03-12T00:12:07.934Z,78
2024-03-12T00:12:36.626Z,78
2024-03-12T00:12:54.800Z,78
2024-03-12T00:13:27.883Z,78
2024-03-12T00:13:59.524Z,78
2024-03-12T00:14:30.910Z,78
2024-03-12T00:15:06.180Z,78
2024-03-12T00:15:35.336Z,78
2024-03-12T00:16:07.118Z,79
2024-03-12T00:16:36.022Z,79
2024-03-12T00:16:54.762Z,79
2024-03-12T00:17:27.629Z,79
2024-03-12T00:17:58.979Z,79
2024-03-12T00:18:30.782Z,79
2024-03-12T00:19:02.860Z,79
2024-03-12T00:19:35.355Z,79
2024-03-12T00:20:09.049Z,79
2024-03-12T00:20:36.101Z,79
2024-03-12T00:20:55.768Z,79
2024-03-12T00:21:27.210Z,79
2024-03-12T00:21:58.870Z,79
2024-03-12T00:22:30.813Z,79
2024-03-12T00:23:02.805Z,79
2024-03-12T00:23:35.160Z,79
2024-03-12T00:24:07.634Z,79
2024-03-12T00:24:36.141Z,79
2024-03-12T00:24:54.790Z,79
2024-03-12T00:25:28.025Z,78
2024-03-12T00:26:00.077Z,78
2024-03-12T00:26:30.891Z,78
2024-03-12T00:27:03.123Z,79
2024-03-12T00:27:34.652Z,79
2024-03-12T00:28:07.418Z,79
2024-03-12T00:28:36.177Z,80
2024-03-12T00:28:54.993Z,80
2024-03-12T00:29:27.472Z,80
2024-03-12T00:29:59.377Z,80
2024-03-12T00:30:32.475Z,80
2024-03-12T00:31:02.884Z,80
2024-03-12T00:31:34.703Z,80
2024-03-12T00:32:07.425Z,80
2024-03-12T00:32:36.110Z,80
2024-03-12T00:32:55.001Z,80
2024-03-12T00:33:27.936Z,80
2024-03-12T00:33:59.588Z,81
2024-03-12T00:34:30.826Z,81
2024-03-12T00:35:05.333Z,81
2024-03-12T00:35:34.778Z,81
2024-03-12T00:36:07.324Z,81
2024-03-12T00:36:36.728Z,81
2024-03-12T00:36:55.240Z,81
2024-03-12T00:37:27.689Z,81
2024-03-12T00:37:58.872Z,81
2024-03-12T00:38:31.717Z,81
2024-03-12T00:39:02.739Z,81
2024-03-12T00:39:34.947Z,81
2024-03-12T00:40:08.802Z,81
2024-03-12T00:40:37.345Z,81
2024-03-12T00:40:56.740Z,81
2024-03-12T00:41:27.342Z,81
2024-03-12T00:41:59.011Z,81
2024-03-12T00:42:30.905Z,81
2024-03-12T00:43:02.706Z,81
2024-03-12T00:43:34.679Z,81
2024-03-12T00:44:07.188Z,81
2024-03-12T00:44:36.439Z,81
2024-03-12T00:44:54.796Z,81
2024-03-12T00:45:29.569Z,81
2024-03-12T00:45:59.470Z,81
2024-03-12T00:46:31.902Z,81
2024-03-12T00:47:03.013Z,80
2024-03-12T00:47:35.049Z,80
2024-03-12T00:48:07.391Z,80
2024-03-12T00:48:36.509Z,80
2024-03-12T00:48:54.810Z,80
2024-03-12T00:49:27.252Z,80
2024-03-12T00:49:59.863Z,80
2024-03-12T00:50:31.960Z,80
2024-03-12T00:51:02.867Z,80
2024-03-12T00:51:34.738Z,80
2024-03-12T00:52:07.141Z,80
2024-03-12T00:52:36.867Z,80
2024-03-12T00:52:54.788Z,80
2024-03-12T00:53:27.371Z,81
2024-03-12T00:53:58.835Z,81
2024-03-12T00:54:30.892Z,81
2024-03-12T00:55:04.869Z,81
2024-03-12T00:55:35.150Z,81
2024-03-12T00:56:07.390Z,81
2024-03-12T00:56:36.525Z,81
2024-03-12T00:56:54.915Z,81
2024-03-12T00:57:27.809Z,82
2024-03-12T00:57:59.359Z,82
2024-03-12T00:58:31.285Z,82
2024-03-12T00:59:02.782Z,82
2024-03-12T00:59:35.529Z,82
2024-03-12T01:00:09.528Z,82
2024-03-12T01:00:36.769Z,82
2024-03-12T01:00:55.839Z,82
2024-03-12T01:01:27.628Z,83
2024-03-12T01:01:59.330Z,83
2024-03-12T01:02:30.894Z,83
2024-03-12T01:03:02.772Z,82
2024-03-12T01:03:34.851Z,83
2024-03-12T01:04:07.234Z,83
2024-03-12T01:04:37.112Z,83
2024-03-12T01:04:55.113Z,83
2024-03-12T01:05:28.329Z,83
2024-03-12T01:05:59.913Z,82
2024-03-12T01:06:30.808Z,82
2024-03-12T01:07:02.976Z,82
2024-03-12T01:07:34.683Z,82
2024-03-12T01:08:07.336Z,82
2024-03-12T01:08:36.282Z,82
2024-03-12T01:08:54.697Z,82
2024-03-12T01:09:27.326Z,82
2024-03-12T01:09:59.350Z,82
2024-03-12T01:10:36.749Z,82
2024-03-12T01:11:02.854Z,82
2024-03-12T01:11:35.075Z,82
2024-03-12T01:12:07.965Z,81
2024-03-12T01:12:36.191Z,81
2024-03-12T01:12:54.776Z,81
2024-03-12T01:13:27.167Z,81
2024-03-12T01:13:59.081Z,80
2024-03-12T01:14:30.822Z,80
2024-03-12T01:15:05.639Z,80
2024-03-12T01:15:35.485Z,80
2024-03-12T01:16:07.081Z,79
2024-03-12T01:16:36.251Z,79
2024-03-12T01:16:54.773Z,79
2024-03-12T01:17:32.690Z,79
2024-03-12T01:17:59.389Z,79
2024-03-12T01:18:30.875Z,78
2024-03-12T01:19:02.802Z,79
2024-03-12T01:19:34.847Z,79
2024-03-12T01:20:08.679Z,79
2024-03-12T01:20:36.473Z,79
2024-03-12T01:20:56.448Z,79
2024-03-12T01:21:27.650Z,79
2024-03-12T01:21:59.621Z,79
2024-03-12T01:22:30.947Z,79
2024-03-12T01:23:02.737Z,79
2024-03-12T01:23:34.747Z,79
2024-03-12T01:24:07.143Z,79
2024-03-12T01:24:36.838Z,79
2024-03-12T01:24:55.551Z,79
2024-03-12T01:25:29.092Z,79
2024-03-12T01:25:59.842Z,79
2024-03-12T01:26:31.856Z,79
2024-03-12T01:27:03.759Z,80
2024-03-12T01:27:35.289Z,80
2024-03-12T01:28:09.003Z,80
2024-03-12T01:28:36.401Z,80
2024-03-12T01:28:54.692Z,80
2024-03-12T01:29:27.262Z,80
2024-03-12T01:29:59.133Z,80
2024-03-12T01:30:32.708Z,80
2024-03-12T01:31:02.964Z,80
2024-03-12T01:31:35.099Z,80
2024-03-12T01:32:07.330Z,80
2024-03-12T01:32:36.708Z,80
2024-03-12T01:32:55.065Z,80
2024-03-12T01:33:27.462Z,80
2024-03-12T01:33:59.481Z,80
2024-03-12T01:34:30.861Z,80
2024-03-12T01:35:05.031Z,80
2024-03-12T01:35:35.096Z,80
2024-03-12T01:36:07.009Z,80
2024-03-12T01:36:37.019Z,80
2024-03-12T01:36:55.651Z,80
2024-03-12T01:37:27.482Z,80
2024-03-12T01:37:59.650Z,80
2024-03-12T01:38:30.983Z,80
2024-03-12T01:39:03.017Z,80
2024-03-12T01:39:34.715Z,80
2024-03-12T01:40:08.962Z,80
2024-03-12T01:40:36.288Z,80
2024-03-12T01:40:55.475Z,80
2024-03-12T01:41:27.310Z,80
2024-03-12T01:41:58.860Z,80
2024-03-12T01:42:30.878Z,80
2024-03-12T01:43:03.377Z,80
2024-03-12T01:43:34.665Z,80
2024-03-12T01:44:07.128Z,80
2024-03-12T01:44:37.081Z,80
2024-03-12T01:44:55.282Z,80
2024-03-12T01:45:28.500Z,80
2024-03-12T01:45:59.379Z,80
2024-03-12T01:46:30.893Z,80
2024-03-12T01:47:03.419Z,81
2024-03-12T01:47:35.875Z,81
2024-03-12T01:48:06.996Z,81
2024-03-12T01:48:36.083Z,81
2024-03-12T01:48:55.354Z,81
2024-03-12T01:49:27.377Z,81
2024-03-12T01:49:59.110Z,81
2024-03-12T01:50:31.791Z,81
2024-03-12T01:51:02.945Z,81
2024-03-12T01:51:34.864Z,81
2024-03-12T01:52:07.175Z,81
2024-03-12T01:52:36.545Z,81
2024-03-12T01:52:54.783Z,81
2024-03-12T01:53:27.278Z,81
2024-03-12T01:53:59.228Z,81
2024-03-12T01:54:31.421Z,81
2024-03-12T01:55:05.523Z,81
2024-03-12T01:55:34.729Z,81
2024-03-12T01:56:07.003Z,81
2024-03-12T01:56:36.122Z,81
2024-03-12T01:56:54.731Z,81
2024-03-12T01:57:27.229Z,81
2024-03-12T01:57:59.349Z,81
2024-03-12T01:58:31.263Z,81
2024-03-12T01:59:02.955Z,81
2024-03-12T01:59:35.048Z,81
2024-03-12T02:00:09.131Z,81
2024-03-12T02:00:36.429Z,81
2024-03-12T02:00:55.767Z,81
2024-03-12T02:01:27.504Z,81
2024-03-12T02:01:59.049Z,81
2024-03-12T02:02:31.008Z,81
2024-03-12T02:03:02.773Z,81
2024-03-12T02:03:34.915Z,82
2024-03-12T02:04:07.374Z,82
2024-03-12T02:04:36.649Z,82
2024-03-12T02:04:55.488Z,82
2024-03-12T02:05:28.379Z,82
2024-03-12T02:06:00.094Z,82
2024-03-12T02:06:31.856Z,81
2024-03-12T02:07:02.886Z,81
2024-03-12T02:07:34.947Z,81
2024-03-12T02:08:07.669Z,81
2024-03-12T02:08:36.493Z,81
2024-03-12T02:08:54.845Z,81
2024-03-12T02:09:27.196Z,81
2024-03-12T02:09:59.525Z,81
2024-03-12T02:10:32.144Z,81
2024-03-12T02:11:03.242Z,81
2024-03-12T02:11:34.816Z,81
2024-03-12T02:12:07.121Z,81
2024-03-12T02:12:36.113Z,81
2024-03-12T02:12:54.852Z,80
2024-03-12T02:13:27.321Z,81
2024-03-12T02:13:58.946Z,81
2024-03-12T02:14:31.061Z,81
2024-03-12T02:15:05.885Z,81
2024-03-12T02:15:34.861Z,81
2024-03-12T02:16:07.317Z,81
2024-03-12T02:16:36.534Z,81
2024-03-12T02:16:54.871Z,81
2024-03-12T02:17:27.389Z,81
2024-03-12T02:17:59.154Z,81
2024-03-12T02:18:30.891Z,81
2024-03-12T02:19:02.750Z,81
2024-03-12T02:19:34.782Z,81
2024-03-12T02:20:08.691Z,81
2024-03-12T02:20:36.658Z,81
2024-03-12T02:20:55.908Z,81
2024-03-12T02:21:27.531Z,81
2024-03-12T02:21:59.000Z,81
2024-03-12T02:22:31.077Z,81
2024-03-12T02:23:02.798Z,81
2024-03-12T02:23:34.746Z,81
2024-03-12T02:24:07.499Z,81
2024-03-12T02:24:36.457Z,81
2024-03-12T02:24:54.906Z,81
2024-03-12T02:25:28.122Z,81
2024-03-12T02:25:58.973Z,81
2024-03-12T02:26:30.838Z,81
2024-03-12T02:27:03.600Z,81
2024-03-12T02:27:34.884Z,81
2024-03-12T02:28:07.505Z,81
2024-03-12T02:28:37.973Z,81
2024-03-12T02:28:54.856Z,81
2024-03-12T02:29:27.467Z,81
2024-03-12T02:29:59.004Z,81
2024-03-12T02:30:32.305Z,81
2024-03-12T02:31:02.869Z,81
2024-03-12T02:31:34.904Z,81
2024-03-12T02:32:07.495Z,81
2024-03-12T02:32:36.891Z,81
2024-03-12T02:32:54.944Z,81
2024-03-12T02:33:27.256Z,81
2024-03-12T02:33:59.336Z,81
2024-03-12T02:34:30.944Z,81
2024-03-12T02:35:05.404Z,81
2024-03-12T02:35:35.099Z,81
2024-03-12T02:36:07.052Z,81
2024-03-12T02:36:36.305Z,82
2024-03-12T02:36:55.366Z,81
2024-03-12T02:37:36.752Z,82
2024-03-12T02:37:59.609Z,82
2024-03-12T02:38:31.295Z,82
2024-03-12T02:39:02.829Z,82
2024-03-12T02:39:35.553Z,82
2024-03-12T02:40:08.907Z,82
2024-03-12T02:40:36.304Z,82
2024-03-12T02:40:55.664Z,82
2024-03-12T02:41:27.628Z,82
2024-03-12T02:41:59.547Z,82
2024-03-12T02:42:31.049Z,82
2024-03-12T02:43:03.018Z,81
2024-03-12T02:43:35.124Z,82
2024-03-12T02:44:07.662Z,82
2024-03-12T02:44:36.490Z,82
2024-03-12T02:44:54.982Z,81
2024-03-12T02:45:28.720Z,81
2024-03-12T02:45:59.617Z,81
2024-03-12T02:46:31.680Z,81
2024-03-12T02:47:02.793Z,82
2024-03-12T02:47:36.060Z,82
2024-03-12T02:48:07.436Z,82
2024-03-12T02:48:37.222Z,82
2024-03-12T02:48:54.805Z,82
2024-03-12T02:49:27.306Z,82
2024-03-12T02:49:59.460Z,82
2024-03-12T02:50:32.258Z,82
2024-03-12T02:51:03.409Z,82
2024-03-12T02:51:35.478Z,82
2024-03-12T02:52:07.290Z,82
2024-03-12T02:52:36.163Z,82
2024-03-12T02:52:54.766Z,82
2024-03-12T02:53:27.993Z,82
2024-03-12T02:53:59.707Z,82
2024-03-12T02:54:31.613Z,82
2024-03-12T02:55:05.239Z,82
2024-03-12T02:55:35.499Z,82
2024-03-12T02:56:07.133Z,82
2024-03-12T02:56:37.623Z,82
2024-03-12T02:56:54.809Z,82
2024-03-12T02:57:27.270Z,82
2024-03-12T02:57:59.059Z,82
2024-03-12T02:58:30.984Z,82
2024-03-12T02:59:03.150Z,82
2024-03-12T02:59:35.086Z,82
2024-03-12T03:00:08.864Z,82
2024-03-12T03:00:36.392Z,82
2024-03-12T03:00:55.963Z,82
2024-03-12T03:01:27.370Z,82
2024-03-12T03:01:59.384Z,82
2024-03-12T03:02:31.103Z,82
2024-03-12T03:03:03.498Z,82
2024-03-12T03:03:35.072Z,82
2024-03-12T03:04:07.586Z,82
2024-03-12T03:04:36.183Z,82
2024-03-12T03:04:55.090Z,82
2024-03-12T03:05:28.288Z,82
2024-03-12T03:05:59.064Z,82
2024-03-12T03:06:31.213Z,82
2024-03-12T03:07:03.564Z,82
2024-03-12T03:07:35.543Z,82
2024-03-12T03:08:07.483Z,82
2024-03-12T03:08:36.370Z,82
2024-03-12T03:08:55.399Z,82
2024-03-12T03:09:27.794Z,83
2024-03-12T03:09:59.073Z,83
2024-03-12T03:10:32.152Z,83
2024-03-12T03:11:02.766Z,83
2024-03-12T03:11:34.903Z,83
2024-03-12T03:12:07.247Z,83
2024-03-12T03:12:36.524Z,83
2024-03-12T03:12:55.057Z,83
2024-03-12T03:13:27.314Z,83
2024-03-12T03:13:58.942Z,83
2024-03-12T03:14:31.251Z,83
2024-03-12T03:15:06.040Z,83
2024-03-12T03:15:35.682Z,83
2024-03-12T03:16:07.188Z,83
2024-03-12T03:16:36.096Z,82
2024-03-12T03:16:54.766Z,83
2024-03-12T03:17:27.623Z,82
2024-03-12T03:17:59.089Z,82
2024-03-12T03:18:31.032Z,82
2024-03-12T03:19:03.125Z,82
2024-03-12T03:19:35.584Z,82
2024-03-12T03:20:08.557Z,82
2024-03-12T03:20:36.927Z,82
2024-03-12T03:20:56.046Z,82
2024-03-12T03:21:27.932Z,82
2024-03-12T03:21:59.155Z,82
2024-03-12T03:22:31.218Z,82
2024-03-12T03:23:02.734Z,82
2024-03-12T03:23:34.799Z,82
2024-03-12T03:24:07.471Z,82
2024-03-12T03:24:36.154Z,82
2024-03-12T03:24:54.912Z,82
2024-03-12T03:25:28.692Z,82
2024-03-12T03:25:59.271Z,82
2024-03-12T03:26:31.087Z,82
2024-03-12T03:27:02.750Z,82
2024-03-12T03:27:36.182Z,82
2024-03-12T03:28:07.085Z,82
2024-03-12T03:28:38.026Z,82
2024-03-12T03:28:55.218Z,82
2024-03-12T03:29:27.698Z,82
2024-03-12T03:29:58.948Z,82
2024-03-12T03:30:32.532Z,82
2024-03-12T03:31:02.834Z,82
2024-03-12T03:31:35.091Z,82
2024-03-12T03:32:07.300Z,82
2024-03-12T03:32:36.602Z,82
2024-03-12T03:32:54.800Z,82
2024-03-12T03:33:27.361Z,82
2024-03-12T03:33:59.170Z,82
2024-03-12T03:34:32.685Z,82
2024-03-12T03:35:04.945Z,82
2024-03-12T03:35:34.745Z,82
2024-03-12T03:36:07.065Z,82
2024-03-12T03:36:36.747Z,83
2024-03-12T03:36:54.912Z,83
2024-03-12T03:37:27.844Z,83
2024-03-12T03:37:59.017Z,82
2024-03-12T03:38:31.052Z,82
2024-03-12T03:39:02.821Z,82
2024-03-12T03:39:35.198Z,82
2024-03-12T03:40:09.021Z,82
2024-03-12T03:40:36.725Z,82
2024-03-12T03:40:57.250Z,82
2024-03-12T03:41:27.147Z,82
2024-03-12T03:41:59.268Z,82
2024-03-12T03:42:31.037Z,82
2024-03-12T03:43:02.927Z,82
2024-03-12T03:43:34.918Z,82
2024-03-12T03:44:07.067Z,82
2024-03-12T03:44:36.256Z,82
2024-03-12T03:44:55.012Z,82
2024-03-12T03:45:30.895Z,82
2024-03-12T03:45:59.125Z,82
2024-03-12T03:46:30.989Z,82
2024-03-12T03:47:03.803Z,82
2024-03-12T03:47:34.931Z,82
2024-03-12T03:48:07.506Z,82
2024-03-12T03:48:36.455Z,82
2024-03-12T03:48:55.407Z,82
2024-03-12T03:49:28.036Z,82
2024-03-12T03:49:58.989Z,82
2024-03-12T03:50:32.430Z,82
2024-03-12T03:51:02.875Z,82
2024-03-12T03:51:35.160Z,82
2024-03-12T03:52:07.136Z,82
2024-03-12T03:52:37.207Z,82
2024-03-12T03:52:54.828Z,82
2024-03-12T03:53:27.482Z,82
2024-03-12T03:53:59.152Z,82
2024-03-12T03:54:31.205Z,82
2024-03-12T03:55:06.116Z,82
2024-03-12T03:55:36.220Z,82
2024-03-12T03:56:07.178Z,82
2024-03-12T03:56:36.284Z,82
2024-03-12T03:56:54.933Z,82
2024-03-12T03:57:27.841Z,82
2024-03-12T03:57:59.304Z,82
2024-03-12T03:58:30.919Z,82
2024-03-12T03:59:02.867Z,82
2024-03-12T03:59:34.782Z,82
2024-03-12T04:00:09.584Z,82
2024-03-12T04:00:36.192Z,82
2024-03-12T04:00:56.076Z,82
2024-03-12T04:01:27.585Z,82
2024-03-12T04:01:58.930Z,82
2024-03-12T04:02:31.028Z,83
2024-03-12T04:03:02.822Z,83
2024-03-12T04:03:35.309Z,83
2024-03-12T04:04:07.270Z,83
2024-03-12T04:04:36.183Z,83
2024-03-12T04:04:54.949Z,83
2024-03-12T04:05:28.185Z,83
2024-03-12T04:05:59.148Z,83
2024-03-12T04:06:31.128Z,83
2024-03-12T04:07:02.777Z,83
2024-03-12T04:07:35.743Z,83
2024-03-12T04:08:07.266Z,83
2024-03-12T04:08:37.375Z,83
2024-03-12T04:08:54.859Z,83
2024-03-12T04:09:27.563Z,83
2024-03-12T04:09:59.161Z,83
2024-03-12T04:10:31.839Z,83
2024-03-12T04:11:02.876Z,83
2024-03-12T04:11:35.304Z,83
2024-03-12T04:12:07.252Z,83
2024-03-12T04:12:36.262Z,83
2024-03-12T04:12:55.082Z,83
2024-03-12T04:13:27.314Z,83
2024-03-12T04:13:59.109Z,84
2024-03-12T04:14:30.971Z,84
2024-03-12T04:15:06.331Z,84
2024-03-12T04:15:35.536Z,84
2024-03-12T04:16:07.382Z,84
2024-03-12T04:16:36.895Z,84
2024-03-12T04:16:55.849Z,84
2024-03-12T04:17:27.382Z,84
2024-03-12T04:17:59.797Z,84
2024-03-12T04:18:31.082Z,84
2024-03-12T04:19:03.805Z,84
2024-03-12T04:19:34.808Z,84
2024-03-12T04:20:09.211Z,84
2024-03-12T04:20:36.312Z,84
2024-03-12T04:20:56.825Z,84
2024-03-12T04:21:27.767Z,84
2024-03-12T04:21:59.067Z,84
2024-03-12T04:22:31.325Z,84
2024-03-12T04:23:02.906Z,84
2024-03-12T04:23:35.242Z,84
2024-03-12T04:24:07.178Z,84
2024-03-12T04:24:36.898Z,84
2024-03-12T04:24:55.138Z,84
2024-03-12T04:25:28.866Z,84
2024-03-12T04:25:58.975Z,84
2024-03-12T04:26:31.435Z,84
2024-03-12T04:27:04.180Z,84
2024-03-12T04:27:35.494Z,84
2024-03-12T04:28:07.468Z,84
2024-03-12T04:28:36.923Z,84
2024-03-12T04:28:55.165Z,84
2024-03-12T04:29:27.601Z,84
2024-03-12T04:29:58.939Z,84
2024-03-12T04:30:32.485Z,84
2024-03-12T04:31:02.919Z,84
2024-03-12T04:31:34.884Z,84
2024-03-12T04:32:07.127Z,84
2024-03-12T04:32:36.109Z,84
2024-03-12T04:32:55.353Z,84
2024-03-12T04:33:27.423Z,84
2024-03-12T04:34:00.023Z,84
2024-03-12T04:34:31.098Z,84
2024-03-12T04:35:05.038Z,84
2024-03-12T04:35:35.068Z,85
2024-03-12T04:36:07.174Z,84
2024-03-12T04:36:36.189Z,84
2024-03-12T04:36:54.986Z,84
2024-03-12T04:37:27.458Z,84
2024-03-12T04:37:59.193Z,84
2024-03-12T04:38:31.359Z,85
2024-03-12T04:39:03.832Z,84
2024-03-12T04:39:34.953Z,85
2024-03-12T04:40:09.386Z,84
2024-03-12T04:40:36.817Z,84
2024-03-12T04:40:55.823Z,84
2024-03-12T04:41:27.630Z,84
2024-03-12T04:41:59.029Z,84
2024-03-12T04:42:31.189Z,84
2024-03-12T04:43:02.810Z,84
2024-03-12T04:43:35.215Z,85
2024-03-12T04:44:07.279Z,85
2024-03-12T04:44:36.759Z,85
2024-03-12T04:44:54.942Z,85
2024-03-12T04:45:28.594Z,85
2024-03-12T04:45:59.375Z,85
2024-03-12T04:46:30.998Z,85
2024-03-12T04:47:03.046Z,85
2024-03-12T04:47:35.906Z,85
2024-03-12T04:48:07.210Z,85
2024-03-12T04:48:37.596Z,85
2024-03-12T04:48:55.948Z,85
2024-03-12T04:49:27.885Z,85
2024-03-12T04:49:59.418Z,85
2024-03-12T04:50:32.102Z,85
2024-03-12T04:51:03.785Z,85
2024-03-12T04:51:35.595Z,85
2024-03-12T04:52:08.191Z,84
2024-03-12T04:52:36.555Z,84
2024-03-12T04:52:55.135Z,85
2024-03-12T04:53:27.538Z,84
2024-03-12T04:53:59.595Z,84
2024-03-12T04:54:31.163Z,84
2024-03-12T04:55:05.042Z,84
2024-03-12T04:55:35.953Z,84
2024-03-12T04:56:07.305Z,84
2024-03-12T04:56:36.657Z,84
2024-03-12T04:56:55.098Z,84
2024-03-12T04:57:27.820Z,83
2024-03-12T04:57:59.332Z,84
2024-03-12T04:58:31.316Z,84
2024-03-12T04:59:03.070Z,84
2024-03-12T04:59:35.451Z,84
2024-03-12T05:00:09.515Z,84
2024-03-12T05:00:36.677Z,84
2024-03-12T05:00:57.215Z,84
2024-03-12T05:01:27.770Z,84
2024-03-12T05:01:59.053Z,84
2024-03-12T05:02:31.539Z,84
2024-03-12T05:03:02.921Z,84
2024-03-12T05:03:35.198Z,84
2024-03-12T05:04:15.141Z,85
2024-03-12T05:04:36.701Z,85
2024-03-12T05:04:55.429Z,85
2024-03-12T05:05:28.475Z,85
2024-03-12T05:05:58.997Z,85
2024-03-12T05:06:31.541Z,85
2024-03-12T05:07:04.516Z,85
2024-03-12T05:07:35.017Z,85
2024-03-12T05:08:07.608Z,85
2024-03-12T05:08:36.382Z,85
2024-03-12T05:08:55.157Z,85
2024-03-12T05:09:27.505Z,86
2024-03-12T05:09:59.760Z,86
2024-03-12T05:10:32.641Z,86
2024-03-12T05:11:03.015Z,86
2024-03-12T05:11:35.117Z,86
2024-03-12T05:12:07.206Z,86
2024-03-12T05:12:36.223Z,86
2024-03-12T05:12:54.950Z,86
2024-03-12T05:13:27.264Z,86
2024-03-12T05:13:59.240Z,86
2024-03-12T05:14:31.374Z,86
2024-03-12T05:15:05.759Z,86
2024-03-12T05:15:35.350Z,86
2024-03-12T05:16:07.244Z,86
2024-03-12T05:16:36.230Z,86
2024-03-12T05:16:54.927Z,86
2024-03-12T05:17:27.779Z,86
2024-03-12T05:17:59.140Z,86
2024-03-12T05:18:31.435Z,86
2024-03-12T05:19:03.099Z,86
2024-03-12T05:19:35.189Z,87
2024-03-12T05:20:09.265Z,87
2024-03-12T05:20:36.449Z,87
2024-03-12T05:20:56.081Z,87
2024-03-12T05:21:30.701Z,87
2024-03-12T05:21:59.025Z,87
2024-03-12T05:22:31.240Z,87
2024-03-12T05:23:03.054Z,87
2024-03-12T05:23:35.036Z,87
2024-03-12T05:24:07.273Z,87
2024-03-12T05:24:36.490Z,87
2024-03-12T05:24:54.880Z,87
2024-03-12T05:25:28.434Z,87
2024-03-12T05:25:59.290Z,87
2024-03-12T05:26:31.308Z,87
2024-03-12T05:27:04.753Z,87
2024-03-12T05:27:36.322Z,87
2024-03-12T05:28:07.372Z,88
2024-03-12T05:28:37.916Z,88
2024-03-12T05:28:55.674Z,88
2024-03-12T05:29:27.865Z,88
2024-03-12T05:29:59.650Z,88
2024-03-12T05:30:32.550Z,88
2024-03-12T05:31:03.470Z,89
2024-03-12T05:31:35.032Z,88
2024-03-12T05:32:07.560Z,88
2024-03-12T05:32:37.186Z,88
2024-03-12T05:32:55.766Z,89
2024-03-12T05:33:28.070Z,89
2024-03-12T05:33:59.403Z,89
2024-03-12T05:34:31.352Z,89
2024-03-12T05:35:05.376Z,89
2024-03-12T05:35:35.027Z,89
2024-03-12T05:36:07.551Z,89
2024-03-12T05:36:36.928Z,89
2024-03-12T05:36:55.251Z,89
2024-03-12T05:37:27.931Z,89
2024-03-12T05:37:59.422Z,89
2024-03-12T05:38:31.428Z,89
2024-03-12T05:39:03.253Z,90
2024-03-12T05:39:35.353Z,89
2024-03-12T05:40:09.520Z,89
2024-03-12T05:40:36.407Z,89
2024-03-12T05:40:58.119Z,89
2024-03-12T05:41:27.769Z,90
2024-03-12T05:41:59.831Z,89
2024-03-12T05:42:31.562Z,90
2024-03-12T05:43:03.415Z,89
2024-03-12T05:43:35.040Z,89
2024-03-12T05:44:07.757Z,90
2024-03-12T05:44:36.402Z,90
2024-03-12T05:44:55.419Z,90
2024-03-12T05:45:29.075Z,90
2024-03-12T05:46:00.145Z,90
2024-03-12T05:46:31.612Z,90
2024-03-12T05:47:03.175Z,90
2024-03-12T05:47:35.278Z,90
2024-03-12T05:48:08.317Z,90
2024-03-12T05:48:36.605Z,90
2024-03-12T05:48:55.543Z,90
2024-03-12T05:49:27.817Z,90
2024-03-12T05:50:01.139Z,90
2024-03-12T05:50:32.067Z,90
2024-03-12T05:51:03.190Z,90
2024-03-12T05:51:35.129Z,89
2024-03-12T05:52:07.465Z,89
2024-03-12T05:52:36.845Z,89
2024-03-12T05:52:55.127Z,89
2024-03-12T05:53:28.063Z,89
2024-03-12T05:53:59.801Z,89
2024-03-12T05:54:31.301Z,89
2024-03-12T05:55:06.074Z,89
2024-03-12T05:55:35.048Z,89
2024-03-12T05:56:07.802Z,89
2024-03-12T05:56:36.265Z,88
2024-03-12T05:56:55.710Z,88
2024-03-12T05:57:27.772Z,88
2024-03-12T05:57:59.305Z,88
2024-03-12T05:58:31.453Z,88
2024-03-12T05:59:03.105Z,88
2024-03-12T05:59:35.169Z,88
2024-03-12T06:00:09.314Z,88
2024-03-12T06:00:36.431Z,88
2024-03-12T06:00:56.271Z,88
2024-03-12T06:01:30.156Z,88
2024-03-12T06:01:59.379Z,88
2024-03-12T06:02:31.477Z,88
2024-03-12T06:03:03.064Z,88
2024-03-12T06:03:35.168Z,88
2024-03-12T06:04:07.553Z,88
2024-03-12T06:04:36.245Z,88
2024-03-12T06:04:56.627Z,88
2024-03-12T06:05:29.072Z,87
2024-03-12T06:06:00.674Z,87
2024-03-12T06:06:31.770Z,87
2024-03-12T06:07:03.789Z,87
2024-03-12T06:07:36.848Z,87
2024-03-12T06:08:07.833Z,87
2024-03-12T06:08:36.990Z,87
2024-03-12T06:08:55.323Z,87
2024-03-12T06:09:27.760Z,87
2024-03-12T06:09:59.891Z,87
2024-03-12T06:10:32.553Z,87
2024-03-12T06:11:03.074Z,87
2024-03-12T06:11:35.196Z,87
2024-03-12T06:12:07.597Z,87
2024-03-12T06:12:36.640Z,87
2024-03-12T06:12:55.132Z,86
2024-03-12T06:13:27.819Z,86
2024-03-12T06:14:02.158Z,86
2024-03-12T06:14:31.240Z,86
2024-03-12T06:15:06.452Z,86
2024-03-12T06:15:35.958Z,86
2024-03-12T06:16:07.381Z,86
2024-03-12T06:16:36.962Z,86
2024-03-12T06:16:55.853Z,86
2024-03-12T06:17:27.853Z,85
2024-03-12T06:17:59.634Z,85
2024-03-12T06:18:31.274Z,85
2024-03-12T06:19:03.139Z,85
2024-03-12T06:19:35.699Z,85
2024-03-12T06:20:11.319Z,84
2024-03-12T06:20:36.745Z,84
2024-03-12T06:20:57.372Z,84
2024-03-12T06:21:28.013Z,84
2024-03-12T06:22:00.310Z,84
2024-03-12T06:22:31.292Z,83
2024-03-12T06:23:03.105Z,83
2024-03-12T06:23:35.823Z,83
2024-03-12T06:24:07.338Z,83
2024-03-12T06:24:36.926Z,83
2024-03-12T06:24:55.142Z,83
2024-03-12T06:25:28.758Z,83
2024-03-12T06:25:59.523Z,83
2024-03-12T06:26:31.307Z,83
2024-03-12T06:27:03.213Z,83
2024-03-12T06:27:35.047Z,83
2024-03-12T06:28:08.575Z,83
2024-03-12T06:28:36.392Z,83
2024-03-12T06:28:55.154Z,83
2024-03-12T06:29:27.767Z,83
2024-03-12T06:30:00.207Z,83
2024-03-12T06:30:32.753Z,83
2024-03-12T06:31:03.454Z,83
2024-03-12T06:31:35.318Z,83
2024-03-12T06:32:07.325Z,83
2024-03-12T06:32:36.571Z,83
2024-03-12T06:32:55.318Z,83
2024-03-12T06:33:28.480Z,83
2024-03-12T06:33:59.287Z,83
2024-03-12T06:34:32.142Z,83
2024-03-12T06:35:05.642Z,83
2024-03-12T06:35:36.091Z,83
2024-03-12T06:36:07.641Z,83
2024-03-12T06:36:36.949Z,83
2024-03-12T06:36:55.622Z,83
2024-03-12T06:37:27.815Z,83
2024-03-12T06:37:59.997Z,83
2024-03-12T06:38:31.471Z,83
2024-03-12T06:39:03.151Z,83
2024-03-12T06:39:35.926Z,83
2024-03-12T06:40:08.930Z,83
2024-03-12T06:40:37.231Z,83
2024-03-12T06:40:57.089Z,83
2024-03-12T06:41:28.625Z,83
2024-03-12T06:42:00.007Z,83
2024-03-12T06:42:31.618Z,83
2024-03-12T06:43:03.851Z,83
2024-03-12T06:43:35.946Z,83
2024-03-12T06:44:07.946Z,83
2024-03-12T06:44:36.911Z,83
2024-03-12T06:44:55.583Z,83
2024-03-12T06:45:29.305Z,83
2024-03-12T06:45:59.623Z,83
2024-03-12T06:46:31.593Z,83
2024-03-12T06:47:03.139Z,83
2024-03-12T06:47:35.147Z,83
2024-03-12T06:48:07.474Z,83
2024-03-12T06:48:37.413Z,83
2024-03-12T06:48:55.217Z,83
2024-03-12T06:49:27.865Z,83
2024-03-12T06:49:59.457Z,84
2024-03-12T06:50:32.205Z,84
2024-03-12T06:51:03.254Z,84
2024-03-12T06:51:35.118Z,84
2024-03-12T06:52:08.156Z,84
2024-03-12T06:52:36.688Z,84
2024-03-12T06:52:55.241Z,84
2024-03-12T06:53:27.920Z,84
2024-03-12T06:53:59.622Z,84
2024-03-12T06:54:31.531Z,84
2024-03-12T06:55:05.416Z,84
2024-03-12T06:55:35.173Z,84
2024-03-12T06:56:07.623Z,84
2024-03-12T06:56:36.479Z,84
2024-03-12T06:56:55.242Z,84
2024-03-12T06:57:27.646Z,84
2024-03-12T06:57:59.213Z,84
2024-03-12T06:58:31.368Z,84
2024-03-12T06:59:03.277Z,84
2024-03-12T06:59:35.486Z,84
2024-03-12T07:00:09.507Z,84
2024-03-12T07:00:36.938Z,84
2024-03-12T07:00:58.138Z,84
2024-03-12T07:01:27.482Z,84
2024-03-12T07:02:00.723Z,84
2024-03-12T07:02:31.312Z,84
2024-03-12T07:03:03.331Z,84
2024-03-12T07:03:35.066Z,85
2024-03-12T07:04:07.348Z,84
2024-03-12T07:04:36.670Z,84
2024-03-12T07:04:55.180Z,85
2024-03-12T07:05:28.407Z,85
2024-03-12T07:05:59.279Z,85
2024-03-12T07:06:31.375Z,85
2024-03-12T07:07:10.110Z,85
2024-03-12T07:07:35.105Z,85